createdAt,value
2022-10-10T00:01:02.662Z,96.74
2022-10-10T00:03:30.340Z,96.30
2022-10-10T00:05:58.126Z,96.63
2022-10-10T00:08:27.269Z,97.06
2022-10-10T00:10:55.032Z,96.25
2022-10-10T00:13:22.874Z,96.47
2022-10-10T00:15:50.623Z,96.68
2022-10-10T00:18:18.402Z,96.75
2022-10-10T00:20:46.157Z,96.80
2022-10-10T00:23:13.804Z,95.82
2022-10-10T00:25:42.967Z,97.31
2022-10-10T00:28:10.637Z,97.44
2022-10-10T00:30:38.389Z,98.50
2022-10-10T00:33:06.595Z,98.59
2022-10-10T00:35:34.337Z,96.83
2022-10-10T00:38:02.152Z,97.13
2022-10-10T00:40:29.952Z,97.65
2022-10-10T00:42:58.969Z,97.54
2022-10-10T00:45:32.172Z,100.00
2022-10-10T00:48:04.059Z,99.02
2022-10-10T00:50:34.567Z,99.44
2022-10-10T00:53:04.413Z,99.12
2022-10-10T00:55:32.205Z,99.34
2022-10-10T00:58:01.369Z,99.64
2022-10-10T01:00:29.134Z,98.10
2022-10-10T01:02:56.859Z,100.00
2022-10-10T01:05:25.311Z,99.55
2022-10-10T01:07:53.383Z,97.95
2022-10-10T01:10:23.176Z,99.66
2022-10-10T01:13:05.234Z,99.80
2022-10-10T01:15:46.713Z,98.68
2022-10-10T01:18:20.929Z,98.56
2022-10-10T01:20:59.482Z,99.61
2022-10-10T01:24:05.437Z,100.00
2022-10-10T01:26:56.147Z,100.00
2022-10-10T01:29:31.198Z,100.00
2022-10-10T01:32:06.699Z,100.00
2022-10-10T01:34:44.982Z,100.00
2022-10-10T01:37:19.685Z,100.00
2022-10-10T01:39:55.817Z,100.00
2022-10-10T01:42:29.575Z,100.00
2022-10-10T01:44:59.213Z,100.00
2022-10-10T01:47:26.946Z,100.00
2022-10-10T01:50:00.394Z,100.00
2022-10-10T01:52:41.213Z,100.00
2022-10-10T01:55:30.186Z,100.00
2022-10-10T01:58:11.547Z,100.00
2022-10-10T02:00:49.521Z,100.00
2022-10-10T02:03:23.130Z,100.00
2022-10-10T02:05:58.049Z,100.00
2022-10-10T02:08:32.877Z,100.00
2022-10-10T02:11:03.830Z,100.00
2022-10-10T02:13:37.471Z,100.00
2022-10-10T02:16:10.883Z,100.00
2022-10-10T02:18:38.649Z,99.98
2022-10-10T02:21:09.631Z,100.00
2022-10-10T02:23:38.098Z,100.00
2022-10-10T02:26:05.958Z,100.00
2022-10-10T02:28:41.062Z,99.66
2022-10-10T02:31:16.365Z,100.00
2022-10-10T02:33:49.393Z,99.25
2022-10-10T02:36:19.923Z,100.00
2022-10-10T02:38:48.997Z,99.91
2022-10-10T02:41:19.557Z,100.00
2022-10-10T02:43:48.249Z,100.00
2022-10-10T02:46:17.901Z,100.00
2022-10-10T02:48:46.089Z,100.00
2022-10-10T02:51:16.114Z,100.00
2022-10-10T02:53:44.158Z,100.00
2022-10-10T02:56:12.157Z,100.00
2022-10-10T02:58:39.913Z,100.00
2022-10-10T03:01:07.713Z,100.00
2022-10-10T03:03:37.198Z,100.00
2022-10-10T03:06:05.215Z,100.00
2022-10-10T03:08:32.890Z,100.00
2022-10-10T03:11:02.705Z,100.00
2022-10-10T03:13:30.425Z,100.00
2022-10-10T03:15:58.325Z,100.00
2022-10-10T03:18:26.173Z,100.00
2022-10-10T03:20:57.162Z,100.00
2022-10-10T03:23:25.906Z,100.00
2022-10-10T03:25:54.092Z,100.00
2022-10-10T03:28:22.242Z,100.00
2022-10-10T03:30:50.223Z,100.00
2022-10-10T03:33:17.986Z,100.00
2022-10-10T03:35:45.719Z,100.00
2022-10-10T03:38:15.639Z,100.00
2022-10-10T03:40:44.671Z,100.00
2022-10-10T03:43:13.884Z,100.00
2022-10-10T03:45:43.301Z,100.00
2022-10-10T03:48:11.501Z,100.00
2022-10-10T03:50:39.612Z,100.00
2022-10-10T03:53:07.609Z,100.00
2022-10-10T03:55:36.823Z,100.00
2022-10-10T03:58:04.489Z,100.00
2022-10-10T04:00:32.260Z,100.00
2022-10-10T04:03:00.763Z,100.00
2022-10-10T04:05:28.576Z,100.00
2022-10-10T04:07:56.258Z,100.00
2022-10-10T04:10:23.974Z,100.00
2022-10-10T04:12:53.360Z,100.00
2022-10-10T04:15:21.274Z,100.00
2022-10-10T04:17:49.430Z,100.00
2022-10-10T04:20:17.999Z,100.00
2022-10-10T04:22:45.787Z,100.00
2022-10-10T04:25:13.588Z,100.00
2022-10-10T04:27:41.245Z,100.00
2022-10-10T04:30:11.599Z,100.00
2022-10-10T04:32:40.046Z,100.00
2022-10-10T04:35:08.295Z,100.00
2022-10-10T04:37:36.827Z,100.00
2022-10-10T04:40:05.146Z,100.00
2022-10-10T04:42:32.894Z,100.00
2022-10-10T04:45:00.649Z,100.00
2022-10-10T04:47:29.719Z,100.00
2022-10-10T04:49:57.442Z,100.00
2022-10-10T04:52:25.122Z,100.00
2022-10-10T04:54:52.918Z,100.00
2022-10-10T04:57:20.593Z,100.00
2022-10-10T04:59:48.377Z,100.00
2022-10-10T05:02:16.080Z,100.00
2022-10-10T05:04:45.166Z,100.00
2022-10-10T05:07:13.017Z,100.00
2022-10-10T05:09:40.737Z,100.00
2022-10-10T05:12:08.406Z,100.00
2022-10-10T05:14:36.141Z,100.00
2022-10-10T05:17:03.903Z,100.00
2022-10-10T05:19:31.571Z,100.00
2022-10-10T05:22:00.728Z,100.00
2022-10-10T05:24:28.640Z,100.00
2022-10-10T05:26:56.309Z,100.00
2022-10-10T05:29:24.235Z,100.00
2022-10-10T05:31:52.015Z,100.00
2022-10-10T05:34:19.753Z,100.00
2022-10-10T05:36:47.478Z,100.00
2022-10-10T05:39:16.638Z,100.00
2022-10-10T05:41:44.399Z,100.00
2022-10-10T05:44:12.137Z,100.00
2022-10-10T05:46:39.873Z,100.00
2022-10-10T05:49:07.949Z,100.00
2022-10-10T05:51:35.707Z,100.00
2022-10-10T05:54:05.113Z,100.00
2022-10-10T05:56:34.264Z,100.00
2022-10-10T05:59:01.946Z,100.00
2022-10-10T06:01:29.709Z,100.00
2022-10-10T06:03:57.400Z,100.00
2022-10-10T06:06:27.091Z,100.00
2022-10-10T06:08:55.778Z,100.00
2022-10-10T06:11:25.021Z,100.00
2022-10-10T06:13:54.326Z,100.00
2022-10-10T06:16:22.465Z,100.00
2022-10-10T06:18:50.566Z,100.00
2022-10-10T06:21:18.807Z,100.00
2022-10-10T06:23:47.209Z,100.00
2022-10-10T06:26:15.286Z,100.00
2022-10-10T06:28:43.100Z,100.00
2022-10-10T06:31:14.497Z,100.00
2022-10-10T06:33:45.326Z,100.00
2022-10-10T06:36:15.225Z,100.00
2022-10-10T06:38:44.818Z,100.00
2022-10-10T06:41:13.482Z,100.00
2022-10-10T06:43:42.306Z,100.00
2022-10-10T06:46:11.642Z,100.00
2022-10-10T06:48:40.763Z,100.00
2022-10-10T06:51:10.458Z,100.00
2022-10-10T06:53:38.365Z,100.00
2022-10-10T06:56:06.313Z,100.00
2022-10-10T06:58:34.258Z,100.00
2022-10-10T07:01:05.412Z,100.00
2022-10-10T07:03:33.564Z,100.00
2022-10-10T07:06:03.993Z,100.00
2022-10-10T07:08:31.963Z,100.00
2022-10-10T07:10:59.739Z,100.00
2022-10-10T07:13:27.449Z,100.00
2022-10-10T07:15:55.317Z,100.00
2022-10-10T07:18:23.099Z,100.00
2022-10-10T07:20:50.830Z,100.00
2022-10-10T07:23:20.283Z,100.00
2022-10-10T07:25:47.997Z,100.00
2022-10-10T07:28:15.864Z,100.00
2022-10-10T07:30:45.126Z,100.00
2022-10-10T07:33:13.511Z,100.00
2022-10-10T07:35:41.578Z,100.00
2022-10-10T07:38:11.768Z,100.00
2022-10-10T07:40:42.008Z,100.00
2022-10-10T07:43:09.708Z,100.00
2022-10-10T07:45:37.781Z,100.00
2022-10-10T07:48:06.481Z,100.00
2022-10-10T07:50:34.240Z,100.00
2022-10-10T07:53:02.078Z,100.00
2022-10-10T07:55:29.791Z,100.00
2022-10-10T07:58:00.199Z,100.00
2022-10-10T08:00:28.109Z,100.00
2022-10-10T08:02:55.817Z,100.00
2022-10-10T08:05:23.614Z,100.00
2022-10-10T08:07:51.570Z,100.00
2022-10-10T08:10:19.597Z,100.00
2022-10-10T08:12:47.319Z,100.00
2022-10-10T08:15:16.502Z,100.00
2022-10-10T08:17:44.191Z,100.00
2022-10-10T08:20:11.974Z,100.00
2022-10-10T08:22:39.969Z,100.00
2022-10-10T08:25:08.512Z,100.00
2022-10-10T08:27:36.256Z,100.00
2022-10-10T08:30:04.773Z,100.00
2022-10-10T08:32:33.960Z,100.00
2022-10-10T08:35:01.659Z,100.00
2022-10-10T08:37:35.145Z,100.00
2022-10-10T08:40:05.952Z,100.00
2022-10-10T08:42:42.016Z,100.00
2022-10-10T08:45:17.392Z,100.00
2022-10-10T08:47:51.971Z,100.00
2022-10-10T08:50:23.077Z,100.00
2022-10-10T08:52:56.072Z,100.00
2022-10-10T08:55:30.937Z,100.00
2022-10-10T08:58:04.820Z,100.00
2022-10-10T09:00:38.827Z,100.00
2022-10-10T09:03:20.146Z,100.00
2022-10-10T09:05:59.649Z,100.00
2022-10-10T09:08:42.389Z,100.00
2022-10-10T09:11:21.305Z,100.00
2022-10-10T09:14:00.498Z,100.00
2022-10-10T09:16:37.401Z,100.00
2022-10-10T09:19:24.049Z,100.00
2022-10-10T09:21:57.694Z,100.00
2022-10-10T09:24:28.302Z,100.00
2022-10-10T09:27:00.226Z,100.00
2022-10-10T09:29:33.969Z,100.00
2022-10-10T09:32:10.573Z,100.00
2022-10-10T09:34:42.726Z,100.00
2022-10-10T09:37:24.396Z,98.37
2022-10-10T09:40:02.990Z,100.00
2022-10-10T09:42:36.608Z,100.00
2022-10-10T09:45:14.030Z,99.99
2022-10-10T09:47:42.169Z,99.97
2022-10-10T09:50:15.870Z,100.00
2022-10-10T09:52:45.221Z,98.74
2022-10-10T09:55:28.099Z,98.97
2022-10-10T09:57:58.713Z,98.89
2022-10-10T10:00:33.840Z,99.84
2022-10-10T10:03:07.344Z,97.79
2022-10-10T10:05:36.713Z,98.35
2022-10-10T10:08:04.658Z,98.53
2022-10-10T10:10:36.721Z,97.25
2022-10-10T10:13:13.221Z,96.90
2022-10-10T10:15:48.459Z,96.23
2022-10-10T10:18:25.023Z,95.41
2022-10-10T10:20:56.742Z,94.49
2022-10-10T10:23:27.614Z,94.27
2022-10-10T10:26:00.220Z,93.65
2022-10-10T10:28:28.577Z,93.06
2022-10-10T10:30:59.483Z,94.66
2022-10-10T10:33:39.382Z,93.14
2022-10-10T10:36:21.063Z,93.56
2022-10-10T10:38:53.809Z,92.16
2022-10-10T10:41:32.514Z,94.62
2022-10-10T10:44:32.041Z,94.65
2022-10-10T10:47:12.208Z,94.15
2022-10-10T10:49:51.511Z,96.45
2022-10-10T10:52:55.582Z,94.71
2022-10-10T10:55:33.230Z,96.27
2022-10-10T11:01:44.821Z,98.18
2022-10-10T11:05:17.847Z,97.47
2022-10-10T11:07:21.105Z,95.45
2022-10-10T11:09:57.843Z,94.79
2022-10-10T11:12:39.445Z,95.92
2022-10-10T11:15:14.194Z,96.42
2022-10-10T11:17:46.418Z,95.63
2022-10-10T11:20:25.130Z,94.26
2022-10-10T11:22:56.794Z,96.14
2022-10-10T11:25:30.730Z,96.29
2022-10-10T11:28:03.829Z,93.69
2022-10-10T11:30:34.582Z,93.42
2022-10-10T11:33:11.403Z,92.84
2022-10-10T11:35:44.111Z,94.90
2022-10-10T11:38:18.079Z,95.55
2022-10-10T11:40:53.843Z,93.98
2022-10-10T11:43:31.179Z,94.89
2022-10-10T11:46:07.737Z,95.28
2022-10-10T11:48:47.125Z,98.65
2022-10-10T11:51:25.743Z,100.00
2022-10-10T11:53:59.614Z,100.00
2022-10-10T11:56:33.583Z,100.00
2022-10-10T11:59:07.098Z,100.00
2022-10-10T12:01:39.151Z,100.00
2022-10-10T12:04:06.811Z,100.00
2022-10-10T12:06:40.381Z,100.00
2022-10-10T12:09:14.718Z,100.00
2022-10-10T12:11:47.038Z,100.00
2022-10-10T12:14:17.641Z,100.00
2022-10-10T12:16:46.045Z,100.00
2022-10-10T12:19:19.943Z,100.00
2022-10-10T12:21:57.239Z,100.00
2022-10-10T12:24:26.549Z,100.00
2022-10-10T12:27:30.368Z,100.00
2022-10-10T12:30:16.624Z,100.00
2022-10-10T12:32:44.974Z,100.00
2022-10-10T12:35:34.536Z,99.71
2022-10-10T12:38:23.980Z,100.00
2022-10-10T12:41:12.565Z,100.00
2022-10-10T12:43:49.521Z,100.00
2022-10-10T12:46:30.065Z,98.78
2022-10-10T12:49:04.121Z,99.51
2022-10-10T12:51:34.965Z,99.52
2022-10-10T12:54:06.137Z,100.00
2022-10-10T12:56:40.708Z,98.71
2022-10-10T12:59:19.114Z,98.58
2022-10-10T13:01:53.243Z,98.50
2022-10-10T13:04:21.538Z,98.07
2022-10-10T13:06:53.437Z,97.15
2022-10-10T13:09:23.838Z,98.69
2022-10-10T13:11:57.183Z,97.51
2022-10-10T13:14:28.242Z,97.61
2022-10-10T13:16:55.969Z,100.00
2022-10-10T13:19:25.120Z,100.00
2022-10-10T13:21:55.710Z,99.92
2022-10-10T13:24:29.458Z,100.00
2022-10-10T13:26:57.446Z,100.00
2022-10-10T13:29:31.289Z,100.00
2022-10-10T13:32:01.934Z,100.00
2022-10-10T13:34:33.076Z,100.00
2022-10-10T13:37:02.882Z,100.00
2022-10-10T13:39:33.674Z,100.00
2022-10-10T13:42:01.489Z,100.00
2022-10-10T13:44:35.093Z,100.00
2022-10-10T13:47:35.990Z,100.00
2022-10-10T13:50:03.840Z,100.00
2022-10-10T13:52:31.539Z,100.00
2022-10-10T13:55:15.303Z,100.00
2022-10-10T13:57:43.245Z,100.00
2022-10-10T14:00:19.978Z,100.00
2022-10-10T14:02:48.265Z,100.00
2022-10-10T14:05:20.589Z,100.00
2022-10-10T14:07:50.742Z,100.00
2022-10-10T14:10:22.497Z,100.00
2022-10-10T14:12:53.245Z,100.00
2022-10-10T14:15:45.401Z,100.00
2022-10-10T14:18:17.276Z,100.00
2022-10-10T14:20:45.224Z,100.00
2022-10-10T14:23:13.457Z,100.00
2022-10-10T14:25:42.534Z,100.00
2022-10-10T14:28:15.896Z,100.00
2022-10-10T14:30:45.302Z,100.00
2022-10-10T14:33:13.917Z,100.00
2022-10-10T14:35:42.389Z,100.00
2022-10-10T14:38:11.536Z,100.00
2022-10-10T14:40:39.279Z,100.00
2022-10-10T14:43:06.950Z,100.00
2022-10-10T14:45:35.101Z,100.00
2022-10-10T14:48:04.494Z,100.00
2022-10-10T14:50:34.409Z,100.00
2022-10-10T14:53:02.405Z,100.00
2022-10-10T14:55:30.124Z,100.00
2022-10-10T14:57:57.805Z,100.00
2022-10-10T15:00:27.418Z,100.00
2022-10-10T15:02:55.441Z,100.00
2022-10-10T15:05:24.624Z,100.00
2022-10-10T15:07:53.794Z,100.00
2022-10-10T15:10:37.121Z,100.00
2022-10-10T15:13:04.952Z,100.00
2022-10-10T15:15:32.746Z,100.00
2022-10-10T15:18:00.988Z,100.00
2022-10-10T15:20:31.731Z,100.00
2022-10-10T15:22:59.948Z,100.00
2022-10-10T15:25:33.413Z,100.00
2022-10-10T15:28:03.209Z,100.00
2022-10-10T15:30:31.500Z,100.00
2022-10-10T15:32:59.195Z,100.00
2022-10-10T15:35:40.010Z,100.00
2022-10-10T15:38:16.670Z,100.00
2022-10-10T15:40:44.402Z,100.00
2022-10-10T15:43:12.078Z,100.00
2022-10-10T15:45:55.427Z,100.00
2022-10-10T15:48:24.121Z,100.00
2022-10-10T15:50:52.372Z,100.00
2022-10-10T15:53:21.439Z,100.00
2022-10-10T15:55:49.329Z,100.00
2022-10-10T15:58:17.274Z,100.00
2022-10-10T16:00:45.779Z,100.00
2022-10-10T16:03:13.745Z,100.00
2022-10-10T16:05:43.006Z,100.00
2022-10-10T16:08:12.046Z,100.00
2022-10-10T16:10:43.069Z,100.00
2022-10-10T16:13:11.479Z,100.00
2022-10-10T16:15:39.229Z,100.00
2022-10-10T16:18:07.016Z,100.00
2022-10-10T16:20:34.751Z,100.00
2022-10-10T16:23:02.431Z,100.00
2022-10-10T16:25:30.198Z,100.00
2022-10-10T16:27:59.450Z,100.00
2022-10-10T16:30:27.180Z,100.00
2022-10-10T16:32:54.842Z,100.00
2022-10-10T16:35:22.736Z,100.00
2022-10-10T16:37:50.421Z,100.00
2022-10-10T16:40:18.719Z,100.00
2022-10-10T16:42:46.474Z,100.00
2022-10-10T16:45:15.645Z,100.00
2022-10-10T17:00:38.458Z,100.00
2022-10-10T17:03:06.152Z,100.00
2022-10-10T17:05:33.902Z,100.00
2022-10-10T17:08:01.579Z,100.00
2022-10-10T17:10:29.590Z,100.00
2022-10-10T17:12:57.274Z,100.00
2022-10-10T17:15:25.004Z,100.00
2022-10-10T17:17:54.102Z,100.00
2022-10-10T17:20:21.846Z,100.00
2022-10-10T17:22:49.560Z,100.00
2022-10-10T17:25:17.456Z,100.00
2022-10-10T17:27:45.135Z,100.00
2022-10-10T17:30:14.243Z,100.00
2022-10-10T17:32:43.127Z,100.00
2022-10-10T17:35:12.936Z,100.00
2022-10-10T17:37:40.629Z,100.00
2022-10-10T17:40:10.102Z,100.00
2022-10-10T17:42:37.802Z,100.00
2022-10-10T17:45:05.957Z,100.00
2022-10-10T17:47:34.785Z,100.00
2022-10-10T17:50:02.597Z,100.00
2022-10-10T17:52:31.691Z,100.00
2022-10-10T17:54:59.353Z,100.00
2022-10-10T17:57:27.434Z,100.00
2022-10-10T17:59:55.157Z,100.00
2022-10-10T18:02:22.828Z,100.00
2022-10-10T18:04:50.561Z,100.00
2022-10-10T18:07:18.833Z,100.00
2022-10-10T18:09:51.949Z,100.00
2022-10-10T18:12:19.588Z,100.00
2022-10-10T18:14:47.457Z,100.00
2022-10-10T18:17:15.238Z,100.00
2022-10-10T18:19:43.272Z,100.00
2022-10-10T18:22:10.939Z,100.00
2022-10-10T18:24:38.694Z,100.00
2022-10-10T18:27:08.697Z,100.00
2022-10-10T18:29:37.299Z,100.00
2022-10-10T18:32:05.486Z,100.00
2022-10-10T18:34:33.294Z,100.00
2022-10-10T18:37:00.971Z,100.00
2022-10-10T18:39:33.060Z,100.00
2022-10-10T18:42:01.064Z,100.00
2022-10-10T18:44:30.551Z,100.00
2022-10-10T18:46:58.315Z,100.00
2022-10-10T18:49:26.438Z,100.00
2022-10-10T18:51:54.282Z,100.00
2022-10-10T18:54:22.758Z,100.00
2022-10-10T18:56:50.462Z,100.00
2022-10-10T18:59:21.861Z,100.00
2022-10-10T19:01:52.470Z,100.00
2022-10-10T19:04:21.603Z,100.00
2022-10-10T19:06:53.177Z,100.00
2022-10-10T19:09:24.629Z,100.00
2022-10-10T19:11:53.342Z,100.00
2022-10-10T19:14:21.596Z,100.00
2022-10-10T19:16:50.650Z,100.00
2022-10-10T19:19:20.306Z,100.00
2022-10-10T19:21:49.572Z,100.00
2022-10-10T19:24:20.814Z,100.00
2022-10-10T19:26:53.276Z,100.00
2022-10-10T19:29:22.003Z,100.00
2022-10-10T19:31:51.145Z,100.00
2022-10-10T19:34:18.911Z,100.00
2022-10-10T19:36:46.844Z,100.00
2022-10-10T19:39:14.576Z,100.00
2022-10-10T19:41:42.317Z,100.00
2022-10-10T19:44:10.119Z,100.00
2022-10-10T19:46:37.940Z,100.00
2022-10-10T19:49:07.267Z,100.00
2022-10-10T19:51:35.055Z,100.00
2022-10-10T19:54:02.719Z,100.00
2022-10-10T19:56:30.462Z,100.00
2022-10-10T19:59:00.528Z,100.00
2022-10-10T20:01:30.450Z,100.00
2022-10-10T20:03:59.021Z,100.00
2022-10-10T20:06:28.775Z,100.00
2022-10-10T20:08:56.881Z,100.00
2022-10-10T20:11:26.226Z,100.00
2022-10-10T20:13:55.356Z,100.00
2022-10-10T20:16:24.016Z,100.00
2022-10-10T20:18:51.826Z,100.00
2022-10-10T20:21:22.001Z,100.00
2022-10-10T20:23:51.385Z,100.00
2022-10-10T20:26:21.911Z,100.00
2022-10-10T20:28:50.578Z,100.00
2022-10-10T20:31:20.147Z,100.00
2022-10-10T20:33:48.607Z,100.00
2022-10-10T20:36:17.021Z,100.00
2022-10-10T20:38:45.693Z,100.00
2022-10-10T20:41:15.202Z,100.00
2022-10-10T20:43:43.069Z,100.00
2022-10-10T20:46:12.305Z,100.00
2022-10-10T20:48:40.604Z,100.00
2022-10-10T20:51:10.090Z,100.00
2022-10-10T20:53:39.404Z,100.00
2022-10-10T20:56:09.423Z,100.00
2022-10-10T20:58:39.378Z,100.00
2022-10-10T21:01:09.593Z,100.00
2022-10-10T21:03:37.894Z,100.00
2022-10-10T21:06:07.719Z,100.00
2022-10-10T21:08:35.791Z,100.00
2022-10-10T21:11:06.248Z,100.00
2022-10-10T21:13:34.922Z,100.00
2022-10-10T21:16:07.529Z,100.00
2022-10-10T21:18:35.568Z,100.00
2022-10-10T21:21:05.241Z,99.18
2022-10-10T21:23:36.589Z,97.95
2022-10-10T21:26:06.360Z,98.98
2022-10-10T21:28:34.679Z,97.52
2022-10-10T21:31:04.289Z,96.15
2022-10-10T21:33:32.739Z,97.04
2022-10-10T21:36:00.518Z,96.44
2022-10-10T21:38:28.351Z,95.30
2022-10-10T21:40:56.018Z,95.07
2022-10-10T21:43:23.787Z,95.03
2022-10-10T21:45:51.526Z,95.27
2022-10-10T21:48:20.545Z,94.94
2022-10-10T21:50:48.274Z,94.01
2022-10-10T21:53:15.934Z,94.88
2022-10-10T21:55:43.834Z,93.83
2022-10-10T21:58:11.501Z,94.76
2022-10-10T22:00:39.329Z,94.80
2022-10-10T22:03:07.104Z,92.90
2022-10-10T22:05:36.770Z,93.13
2022-10-10T22:08:04.998Z,93.03
2022-10-10T22:10:34.172Z,93.30
2022-10-10T22:13:02.720Z,92.46
2022-10-10T22:15:31.142Z,91.54
2022-10-10T22:17:59.045Z,92.56
2022-10-10T22:20:26.834Z,91.32
2022-10-10T22:22:55.905Z,92.13
2022-10-10T22:25:23.642Z,91.51
2022-10-10T22:27:54.007Z,91.77
2022-10-10T22:30:24.826Z,91.17
2022-10-10T22:32:52.791Z,91.83
2022-10-10T22:35:20.541Z,92.01
2022-10-10T22:37:48.206Z,92.72
2022-10-10T22:40:17.641Z,92.76
2022-10-10T22:42:45.335Z,92.74
2022-10-10T22:45:13.079Z,92.09
2022-10-10T22:47:40.714Z,93.17
2022-10-10T22:50:09.261Z,93.91
2022-10-10T22:52:36.953Z,93.84
2022-10-10T22:55:05.183Z,93.89
2022-10-10T22:57:34.922Z,92.28
2022-10-10T23:00:03.223Z,92.86
2022-10-10T23:02:30.943Z,92.80
2022-10-10T23:04:59.423Z,92.02
2022-10-10T23:07:27.565Z,93.50
2022-10-10T23:09:55.289Z,92.01
2022-10-10T23:12:22.993Z,90.96
2022-10-10T23:14:52.120Z,92.34
2022-10-10T23:17:19.781Z,90.66
2022-10-10T23:19:47.508Z,91.98
2022-10-10T23:22:15.215Z,91.51
2022-10-10T23:24:43.037Z,93.05
2022-10-10T23:27:10.766Z,92.00
2022-10-10T23:29:38.557Z,91.77
2022-10-10T23:32:07.657Z,92.61
2022-10-10T23:34:35.501Z,91.72
2022-10-10T23:37:03.209Z,91.75
2022-10-10T23:39:30.996Z,91.02
2022-10-10T23:41:58.641Z,91.66
2022-10-10T23:44:26.522Z,91.27
2022-10-10T23:46:54.218Z,90.62
2022-10-10T23:49:23.301Z,92.60
2022-10-10T23:51:50.986Z,92.63
2022-10-10T23:54:18.798Z,93.67
2022-10-10T23:56:46.486Z,92.33
2022-10-10T23:59:14.210Z,91.51
